Time;durP1;ratioP1;P1;durP2;ratioP2;P2;SDS_P1;SDS_P2;PMS_P1;PMS_P2;Temp;Humidity;BMP_temperature;BMP_pressure;BME280_temperature;BME280_humidity;BME280_pressure;Samples;Min_cycle;Max_cycle;Signal;HPM_P1;HPM_P2
2023/06/29 00:01:28;;;;;;;4.80;3.37;;;13.40;95.60;;;;;;4993995;28;20640;-52
2023/06/29 00:03:54;;;;;;;5.80;3.80;;;13.30;96.00;;;;;;4995676;28;20546;-53
2023/06/29 00:06:21;;;;;;;5.03;3.60;;;13.40;92.40;;;;;;5004623;28;20515;-53
2023/06/29 00:08:48;;;;;;;8.67;4.17;;;13.40;98.60;;;;;;4996338;28;20481;-53
2023/06/29 00:11:14;;;;;;;7.13;4.27;;;13.40;93.80;;;;;;4997786;28;20448;-52
2023/06/29 00:13:43;;;;;;;8.27;4.40;;;13.30;92.10;;;;;;4994531;28;20527;-52
2023/06/29 00:16:09;;;;;;;8.67;4.97;;;13.30;92.30;;;;;;4998367;28;20487;-53
2023/06/29 00:18:36;;;;;;;7.13;4.90;;;13.30;95.00;;;;;;4993193;28;20515;-53
2023/06/29 00:21:03;;;;;;;8.97;4.57;;;13.30;95.20;;;;;;5001318;28;20464;-53
2023/06/29 00:23:31;;;;;;;9.73;4.77;;;13.20;95.90;;;;;;4993311;28;20460;-52
2023/06/29 00:25:58;;;;;;;14.00;5.03;;;13.20;89.90;;;;;;4985145;28;20557;-52
2023/06/29 00:28:25;;;;;;;7.73;4.83;;;13.20;92.80;;;;;;4992539;28;20468;-52
2023/06/29 00:30:53;;;;;;;5.63;4.63;;;13.20;93.20;;;;;;5000610;28;20492;-57
2023/06/29 00:33:20;;;;;;;13.93;4.90;;;13.20;94.30;;;;;;5000266;28;20471;-51
2023/06/29 00:35:46;;;;;;;6.90;4.23;;;13.20;92.50;;;;;;4991384;28;20488;-52
2023/06/29 00:38:13;;;;;;;11.30;4.43;;;13.20;92.10;;;;;;4996115;28;20468;-52
2023/06/29 00:40:39;;;;;;;10.30;4.57;;;13.20;89.50;;;;;;4996805;28;20544;-53
2023/06/29 00:43:08;;;;;;;9.13;4.70;;;13.20;87.40;;;;;;4991996;28;20518;-52
2023/06/29 00:45:34;;;;;;;9.80;4.90;;;13.20;89.40;;;;;;4990782;28;20556;-51
2023/06/29 00:48:02;;;;;;;6.80;4.47;;;13.20;85.40;;;;;;4991874;28;20523;-51
2023/06/29 00:50:29;;;;;;;4.20;3.80;;;13.20;84.50;;;;;;4996989;28;20478;-52
2023/06/29 00:52:56;;;;;;;6.80;4.80;;;13.20;84.90;;;;;;4996711;28;20477;-52
2023/06/29 00:55:22;;;;;;;13.70;4.37;;;13.20;87.10;;;;;;4990709;28;20496;-52
2023/06/29 00:57:49;;;;;;;8.70;4.77;;;13.20;84.00;;;;;;4988909;28;20492;-52
2023/06/29 01:00:16;;;;;;;13.80;4.93;;;13.00;85.80;;;;;;4997156;28;20480;-52
2023/06/29 01:02:43;;;;;;;8.20;5.00;;;13.00;81.90;;;;;;4982101;28;20523;-52
2023/06/29 01:05:13;;;;;;;7.70;5.13;;;13.00;85.60;;;;;;4999731;28;20492;-52
2023/06/29 01:07:45;;;;;;;8.37;5.00;;;13.10;81.50;;;;;;4997447;28;20577;-52
2023/06/29 01:10:13;;;;;;;8.60;5.03;;;13.00;85.70;;;;;;4993167;28;20543;-52
2023/06/29 01:12:41;;;;;;;7.83;5.63;;;13.10;80.50;;;;;;5006239;28;20464;-52
2023/06/29 01:15:10;;;;;;;13.60;6.53;;;13.00;82.80;;;;;;4985873;28;20551;-51
2023/06/29 01:17:38;;;;;;;8.90;5.10;;;13.10;82.40;;;;;;4998116;28;20568;-52
2023/06/29 01:20:10;;;;;;;7.13;5.30;;;13.00;85.60;;;;;;4995123;28;20547;-51
2023/06/29 01:22:45;;;;;;;8.30;5.17;;;13.00;84.40;;;;;;5008980;28;20534;-51
2023/06/29 01:25:13;;;;;;;10.73;6.10;;;13.00;83.10;;;;;;4985167;28;20468;-52
2023/06/29 01:27:43;;;;;;;6.27;4.60;;;13.00;79.50;;;;;;4999847;28;20480;-52
2023/06/29 01:30:10;;;;;;;8.63;5.43;;;12.90;81.60;;;;;;4991716;28;20504;-53
2023/06/29 01:32:37;;;;;;;8.00;5.20;;;12.90;80.70;;;;;;4997798;28;20461;-52
2023/06/29 01:35:07;;;;;;;8.30;5.67;;;12.90;81.00;;;;;;4986927;28;20882;-51
2023/06/29 01:37:39;;;;;;;7.67;5.10;;;12.90;81.50;;;;;;5004691;28;20518;-52
2023/06/29 01:40:09;;;;;;;6.13;5.27;;;12.90;82.20;;;;;;5000116;28;20534;-52
2023/06/29 01:42:39;;;;;;;8.30;5.10;;;12.80;82.80;;;;;;4998396;28;20576;-52
2023/06/29 01:45:08;;;;;;;19.97;6.33;;;12.80;77.90;;;;;;4985137;28;20544;-53
2023/06/29 01:47:35;;;;;;;10.20;5.30;;;12.80;76.80;;;;;;5002452;28;20913;-52
2023/06/29 01:50:02;;;;;;;10.10;5.07;;;12.80;76.50;;;;;;4995239;28;21041;-52
2023/06/29 01:52:29;;;;;;;7.33;4.77;;;12.80;77.90;;;;;;4990732;28;20467;-54
2023/06/29 01:54:56;;;;;;;10.10;4.53;;;12.80;79.30;;;;;;4989563;28;21061;-52
2023/06/29 01:57:22;;;;;;;9.03;4.93;;;12.80;82.10;;;;;;4990319;28;20847;-52
2023/06/29 01:59:50;;;;;;;6.30;4.30;;;12.70;84.50;;;;;;4998292;28;20547;-51
2023/06/29 02:02:17;;;;;;;7.33;4.73;;;12.60;88.00;;;;;;5000034;28;21548;-53
2023/06/29 02:04:43;;;;;;;4.63;3.70;;;12.70;80.70;;;;;;5000887;28;20514;-53
2023/06/29 02:07:10;;;;;;;6.30;5.23;;;12.70;83.10;;;;;;4997680;28;20595;-52
2023/06/29 02:09:36;;;;;;;10.13;4.93;;;12.60;84.70;;;;;;4995872;28;20463;-52
2023/06/29 02:12:03;;;;;;;7.13;4.87;;;12.50;85.30;;;;;;5006376;28;20543;-52
2023/06/29 02:14:30;;;;;;;13.43;5.00;;;12.50;84.50;;;;;;4990266;28;20559;-52
2023/06/29 02:16:57;;;;;;;4.63;3.90;;;12.40;84.60;;;;;;4989419;28;20575;-52
2023/06/29 02:19:24;;;;;;;5.43;4.33;;;12.30;84.80;;;;;;4992099;28;20555;-53
2023/06/29 02:21:50;;;;;;;6.90;4.33;;;12.30;81.60;;;;;;4993415;28;21001;-53
2023/06/29 02:24:17;;;;;;;5.97;4.00;;;12.40;76.00;;;;;;4991850;28;20567;-53
2023/06/29 02:26:43;;;;;;;9.47;4.40;;;12.40;84.50;;;;;;4992476;28;20572;-53
2023/06/29 02:29:10;;;;;;;5.53;3.80;;;12.30;84.70;;;;;;4993869;28;20544;-53
2023/06/29 02:31:36;;;;;;;6.00;4.10;;;12.30;81.10;;;;;;4996406;28;20559;-52
2023/06/29 02:34:05;;;;;;;6.03;4.00;;;12.30;83.50;;;;;;4988425;28;20551;-52
2023/06/29 02:36:31;;;;;;;9.60;4.60;;;12.30;83.70;;;;;;4994090;28;21287;-53
2023/06/29 02:38:58;;;;;;;7.50;3.90;;;12.20;82.10;;;;;;4992049;28;20548;-52
2023/06/29 02:41:24;;;;;;;5.60;4.50;;;12.20;80.10;;;;;;4994130;28;20539;-51
2023/06/29 02:43:52;;;;;;;5.83;4.27;;;12.20;77.80;;;;;;4996384;28;20579;-52
2023/06/29 02:46:19;;;;;;;6.33;3.70;;;12.20;77.40;;;;;;4993719;28;20990;-52
2023/06/29 02:48:45;;;;;;;7.10;4.40;;;12.20;83.00;;;;;;4994193;28;20457;-52
2023/06/29 02:51:13;;;;;;;7.83;4.70;;;12.20;78.70;;;;;;4998258;28;20575;-52
2023/06/29 02:53:40;;;;;;;9.93;4.50;;;12.20;81.40;;;;;;4995130;28;20560;-52
2023/06/29 02:56:06;;;;;;;11.80;5.07;;;12.10;84.00;;;;;;4993708;28;20567;-52
2023/06/29 02:58:33;;;;;;;8.27;4.70;;;12.10;80.30;;;;;;4994699;28;20540;-53
2023/06/29 03:00:59;;;;;;;7.87;4.80;;;12.10;80.00;;;;;;4998890;28;20553;-53
2023/06/29 03:03:26;;;;;;;9.30;4.33;;;12.10;80.10;;;;;;4997499;28;20587;-52
2023/06/29 03:05:52;;;;;;;9.57;4.53;;;12.10;78.00;;;;;;4985587;28;20568;-52
2023/06/29 03:08:20;;;;;;;4.80;4.30;;;12.10;75.80;;;;;;4991333;28;21049;-52
2023/06/29 03:10:47;;;;;;;5.00;4.23;;;12.20;74.20;;;;;;4992972;28;20583;-52
2023/06/29 03:13:13;;;;;;;8.07;4.83;;;12.20;74.00;;;;;;4997398;28;20484;-52
2023/06/29 03:15:40;;;;;;;4.60;4.20;;;12.20;79.90;;;;;;4991083;28;20551;-53
2023/06/29 03:18:06;;;;;;;4.07;3.70;;;12.20;84.20;;;;;;5005850;28;20548;-51
2023/06/29 03:20:33;;;;;;;5.13;4.60;;;12.20;84.10;;;;;;5000445;28;20551;-52
2023/06/29 03:22:59;;;;;;;8.57;4.57;;;12.20;81.90;;;;;;4995450;28;20583;-51
2023/06/29 03:25:27;;;;;;;4.67;4.17;;;12.30;82.50;;;;;;4985454;28;20564;-51
2023/06/29 03:27:54;;;;;;;6.67;4.33;;;12.30;84.10;;;;;;5006131;28;20464;-53
2023/06/29 03:30:21;;;;;;;7.33;4.43;;;12.30;78.40;;;;;;4999436;28;20551;-53
2023/06/29 03:32:47;;;;;;;7.67;4.80;;;12.30;81.40;;;;;;5002637;28;20574;-52
2023/06/29 03:35:14;;;;;;;7.40;4.60;;;12.30;80.20;;;;;;4991751;28;20548;-52
2023/06/29 03:37:40;;;;;;;6.33;4.23;;;12.30;81.50;;;;;;4993424;28;20985;-52
2023/06/29 03:40:08;;;;;;;10.80;6.17;;;12.30;76.80;;;;;;4993184;28;20539;-52
2023/06/29 03:42:36;;;;;;;6.10;4.83;;;12.40;72.80;;;;;;4991835;28;20563;-52
2023/06/29 03:45:03;;;;;;;6.10;5.10;;;12.50;71.70;;;;;;4991047;28;20559;-52
2023/06/29 03:47:29;;;;;;;9.43;3.90;;;12.50;74.00;;;;;;4993190;28;20485;-52
2023/06/29 03:49:56;;;;;;;5.93;4.53;;;12.50;76.20;;;;;;5001147;28;20449;-53
2023/06/29 03:52:22;;;;;;;5.43;4.53;;;12.50;77.10;;;;;;4993619;28;20558;-52
2023/06/29 03:54:49;;;;;;;6.70;5.07;;;12.50;78.40;;;;;;4991841;28;20468;-52
2023/06/29 03:57:16;;;;;;;7.80;4.60;;;12.70;72.20;;;;;;5015376;23;20591;-52
2023/06/29 03:59:44;;;;;;;10.50;4.57;;;12.70;74.40;;;;;;5009104;28;20487;-52
2023/06/29 04:02:10;;;;;;;5.57;3.87;;;12.70;74.70;;;;;;5011687;28;20488;-51
2023/06/29 04:04:37;;;;;;;8.50;5.17;;;12.80;74.00;;;;;;5010889;28;20495;-52
2023/06/29 04:07:04;;;;;;;7.93;5.80;;;12.90;68.80;;;;;;5012883;28;20476;-51
2023/06/29 04:09:31;;;;;;;6.30;5.37;;;13.00;67.10;;;;;;5012002;28;20464;-52
2023/06/29 04:11:58;;;;;;;12.03;6.33;;;13.10;66.40;;;;;;5012814;28;20447;-52
2023/06/29 04:14:25;;;;;;;6.40;5.00;;;13.20;66.20;;;;;;5005617;28;20452;-52
2023/06/29 04:16:52;;;;;;;5.67;4.70;;;13.20;66.90;;;;;;5010143;28;20534;-52
2023/06/29 04:19:19;;;;;;;7.67;6.13;;;13.30;66.50;;;;;;5012295;28;21033;-51
2023/06/29 04:21:45;;;;;;;5.00;4.50;;;13.40;66.80;;;;;;5009585;28;20558;-51
2023/06/29 04:24:12;;;;;;;8.27;5.50;;;13.40;67.70;;;;;;5005233;28;20524;-51
2023/06/29 04:26:39;;;;;;;5.67;5.10;;;13.50;67.60;;;;;;5007836;28;20519;-52
2023/06/29 04:29:06;;;;;;;5.73;5.10;;;13.50;67.80;;;;;;5002352;28;21319;-52
2023/06/29 04:31:33;;;;;;;14.20;6.17;;;13.50;68.00;;;;;;5010084;28;20945;-52
2023/06/29 04:34:02;;;;;;;10.00;5.87;;;13.60;67.00;;;;;;5010064;28;21017;-52
2023/06/29 04:36:29;;;;;;;11.93;6.30;;;13.70;64.40;;;;;;5006772;28;20509;-53
2023/06/29 04:38:55;;;;;;;14.00;6.00;;;13.70;63.00;;;;;;5008198;28;20534;-52
2023/06/29 04:41:30;;;;;;;8.47;6.23;;;13.80;63.00;;;;;;5010287;28;20498;-52
2023/06/29 04:43:57;;;;;;;10.90;5.83;;;13.80;61.60;;;;;;5003769;28;20847;-52
2023/06/29 04:46:24;;;;;;;10.70;6.43;;;13.90;59.60;;;;;;5007243;28;20567;-52
2023/06/29 04:48:50;;;;;;;6.93;5.50;;;14.00;59.30;;;;;;5005788;28;20558;-51
2023/06/29 04:51:18;;;;;;;9.93;5.87;;;14.20;59.20;;;;;;5007398;28;20551;-52
2023/06/29 04:53:44;;;;;;;7.83;5.67;;;14.20;57.70;;;;;;5003669;28;20550;-53
2023/06/29 04:56:11;;;;;;;8.60;5.17;;;14.30;61.10;;;;;;5009215;28;20578;-52
2023/06/29 04:58:38;;;;;;;8.17;4.77;;;14.40;62.00;;;;;;5003231;28;20551;-51
2023/06/29 05:01:04;;;;;;;5.63;4.80;;;14.50;64.50;;;;;;5009649;28;20539;-52
2023/06/29 05:03:31;;;;;;;12.13;4.90;;;14.60;72.00;;;;;;5006650;28;20568;-51
2023/06/29 05:05:58;;;;;;;6.13;4.90;;;14.70;77.00;;;;;;5009608;28;20566;-52
2023/06/29 05:08:26;;;;;;;9.63;5.40;;;14.90;82.90;;;;;;5005098;28;20554;-50
2023/06/29 05:10:52;;;;;;;6.37;4.90;;;14.90;90.90;;;;;;5008408;28;20495;-51
2023/06/29 05:13:19;;;;;;;12.00;5.77;;;15.00;93.80;;;;;;5005197;28;20511;-51
2023/06/29 05:15:47;;;;;;;12.63;5.23;;;15.10;99.00;;;;;;5003634;28;20515;-51
2023/06/29 05:18:14;;;;;;;7.30;5.23;;;15.20;99.90;;;;;;5005991;28;20459;-52
2023/06/29 05:20:41;;;;;;;5.60;4.73;;;15.30;99.90;;;;;;5004533;28;20554;-52
2023/06/29 05:23:09;;;;;;;10.97;4.53;;;15.40;99.90;;;;;;5000546;28;20498;-52
2023/06/29 05:25:37;;;;;;;11.33;4.17;;;15.50;99.90;;;;;;5005329;28;20460;-51
2023/06/29 05:28:03;;;;;;;5.83;4.13;;;15.60;99.90;;;;;;5002019;28;20551;-51
2023/06/29 05:30:30;;;;;;;4.63;4.03;;;15.70;99.90;;;;;;5004859;28;20555;-51
2023/06/29 05:32:56;;;;;;;4.67;4.10;;;15.70;99.90;;;;;;5011056;28;20542;-51
2023/06/29 05:35:23;;;;;;;5.50;4.20;;;15.80;99.90;;;;;;5011998;28;20498;-50
2023/06/29 05:37:49;;;;;;;7.37;4.30;;;15.90;99.90;;;;;;5004380;28;20566;-50
2023/06/29 05:40:16;;;;;;;7.47;3.77;;;16.00;99.90;;;;;;5009917;28;20559;-51
2023/06/29 05:42:44;;;;;;;6.13;4.10;;;16.00;99.90;;;;;;5016331;28;20549;-52
2023/06/29 05:45:11;;;;;;;8.10;4.50;;;16.10;99.90;;;;;;5012601;28;20555;-52
2023/06/29 05:47:38;;;;;;;17.97;4.43;;;16.20;99.90;;;;;;5008671;28;20542;-51
2023/06/29 05:50:06;;;;;;;10.33;4.57;;;16.20;99.90;;;;;;5012737;28;20459;-51
2023/06/29 05:52:33;;;;;;;13.13;4.20;;;16.30;99.90;;;;;;5014974;28;20467;-52
2023/06/29 05:55:00;;;;;;;10.23;4.07;;;16.40;99.90;;;;;;5013269;28;20563;-50
2023/06/29 05:57:26;;;;;;;6.40;3.70;;;16.50;99.90;;;;;;5013152;28;20569;-51
2023/06/29 05:59:54;;;;;;;7.30;4.07;;;16.60;99.90;;;;;;5009576;28;20559;-51
2023/06/29 06:02:21;;;;;;;7.53;4.27;;;16.70;99.90;;;;;;5014338;28;21198;-52
2023/06/29 06:04:48;;;;;;;8.93;3.50;;;16.80;99.90;;;;;;5007942;28;21076;-51
2023/06/29 06:07:15;;;;;;;7.77;4.20;;;16.80;99.90;;;;;;5011071;28;20484;-52
2023/06/29 06:09:41;;;;;;;6.93;3.60;;;16.90;99.90;;;;;;5010617;28;20452;-52
2023/06/29 06:12:09;;;;;;;8.63;3.83;;;17.00;99.90;;;;;;5009197;28;20543;-53
2023/06/29 06:14:35;;;;;;;6.93;3.40;;;17.20;99.90;;;;;;5012092;28;20530;-53
2023/06/29 06:17:03;;;;;;;3.17;2.87;;;17.30;99.90;;;;;;5006770;28;20583;-51
2023/06/29 06:19:30;;;;;;;7.17;3.87;;;17.40;99.90;;;;;;5010259;28;20866;-51
2023/06/29 06:21:56;;;;;;;7.47;3.50;;;17.60;99.90;;;;;;5003626;28;20543;-51
2023/06/29 06:24:23;;;;;;;6.20;3.43;;;17.70;99.90;;;;;;5009171;28;20566;-51
2023/06/29 06:26:50;;;;;;;7.83;3.37;;;17.90;99.90;;;;;;5005180;28;20570;-52
2023/06/29 06:29:16;;;;;;;4.60;3.23;;;18.20;99.90;;;;;;5000111;28;20598;-51
2023/06/29 06:31:43;;;;;;;5.33;3.57;;;18.30;40.10;;;;;;5004773;28;20551;-52
2023/06/29 06:34:11;;;;;;;6.70;2.87;;;18.60;24.30;;;;;;5008770;28;20543;-51
2023/06/29 06:36:37;;;;;;;6.30;3.13;;;18.80;35.20;;;;;;5009581;28;20938;-51
2023/06/29 06:39:05;;;;;;;12.27;2.93;;;18.90;60.10;;;;;;5008808;28;20470;-51
2023/06/29 06:41:32;;;;;;;6.73;2.50;;;19.10;63.20;;;;;;5008301;28;20463;-52
2023/06/29 06:43:58;;;;;;;2.90;2.50;;;19.20;64.30;;;;;;5009794;28;20476;-50
2023/06/29 06:46:25;;;;;;;4.43;2.93;;;19.20;55.30;;;;;;5002763;28;20488;-52
2023/06/29 06:48:52;;;;;;;4.93;3.03;;;19.30;57.00;;;;;;5008342;28;20550;-52
2023/06/29 06:51:20;;;;;;;10.03;3.17;;;19.20;58.70;;;;;;5010276;28;20548;-51
2023/06/29 06:53:46;;;;;;;7.60;3.60;;;19.20;61.70;;;;;;5009061;28;20456;-52
2023/06/29 06:56:13;;;;;;;9.57;3.60;;;19.20;55.80;;;;;;4994448;28;20862;-51
2023/06/29 06:58:40;;;;;;;16.40;3.20;;;19.20;58.80;;;;;;5009681;28;20464;-50
2023/06/29 07:01:07;;;;;;;5.60;2.80;;;19.10;51.70;;;;;;5001627;28;20555;-49
2023/06/29 07:03:33;;;;;;;4.83;2.70;;;19.10;65.90;;;;;;5007842;28;20492;-50
2023/06/29 07:06:00;;;;;;;6.50;2.70;;;19.00;75.50;;;;;;5006272;28;20993;-51
2023/06/29 07:08:28;;;;;;;9.37;3.67;;;19.10;71.40;;;;;;5003671;28;20920;-50
2023/06/29 07:10:55;;;;;;;9.77;2.80;;;19.00;60.30;;;;;;5005410;28;20468;-50
2023/06/29 07:13:22;;;;;;;7.00;2.57;;;19.00;51.50;;;;;;5009382;28;21306;-50
2023/06/29 07:15:48;;;;;;;9.10;3.60;;;19.00;47.20;;;;;;4996371;28;20838;-50
2023/06/29 07:18:15;;;;;;;5.07;3.33;;;19.10;44.10;;;;;;4997255;28;20557;-52
2023/06/29 07:20:42;;;;;;;6.67;2.63;;;19.00;57.70;;;;;;5006091;28;20550;-51
2023/06/29 07:23:10;;;;;;;4.97;2.53;;;19.00;65.80;;;;;;5007015;28;20456;-51
2023/06/29 07:25:38;;;;;;;5.60;2.33;;;19.00;99.70;;;;;;5001503;28;20460;-50
2023/06/29 07:28:05;;;;;;;7.37;2.90;;;19.00;85.00;;;;;;5008998;28;20460;-51
2023/06/29 07:30:31;;;;;;;4.67;2.90;;;19.00;80.70;;;;;;5004135;28;20483;-51
2023/06/29 07:32:58;;;;;;;8.13;2.80;;;19.00;79.30;;;;;;5005137;28;20547;-52
2023/06/29 07:35:24;;;;;;;7.23;2.60;;;19.00;70.30;;;;;;5008778;28;20547;-50
2023/06/29 07:37:51;;;;;;;4.20;3.03;;;19.00;63.90;;;;;;5010951;28;20546;-51
2023/06/29 07:40:19;;;;;;;4.70;2.93;;;19.00;64.10;;;;;;5009449;28;20546;-52
2023/06/29 07:42:47;;;;;;;9.80;3.20;;;19.00;67.60;;;;;;5007977;28;21163;-52
2023/06/29 07:45:14;;;;;;;4.87;2.90;;;19.00;63.80;;;;;;5003313;28;21030;-52
2023/06/29 07:47:41;;;;;;;3.10;2.70;;;19.10;71.50;;;;;;5007495;28;20485;-52
2023/06/29 07:50:08;;;;;;;9.50;3.13;;;19.10;61.50;;;;;;5008815;28;20460;-52
2023/06/29 07:52:34;;;;;;;3.33;2.97;;;19.10;75.50;;;;;;5007290;28;20459;-51
2023/06/29 07:55:01;;;;;;;7.13;2.33;;;19.10;67.80;;;;;;5004840;28;20587;-51
2023/06/29 07:57:27;;;;;;;5.57;2.93;;;19.20;58.90;;;;;;5004460;28;20527;-52
2023/06/29 07:59:55;;;;;;;6.70;3.00;;;19.20;74.60;;;;;;5004451;28;21001;-51
2023/06/29 08:02:22;;;;;;;2.60;2.40;;;19.20;75.70;;;;;;5001941;28;20555;-52
2023/06/29 08:04:50;;;;;;;4.70;2.90;;;19.20;93.20;;;;;;5003261;28;20580;-52
2023/06/29 08:07:17;;;;;;;6.10;2.57;;;19.30;95.90;;;;;;5011060;28;20554;-52
2023/06/29 08:09:43;;;;;;;7.73;2.90;;;19.30;88.40;;;;;;5010572;28;20460;-51
2023/06/29 08:12:10;;;;;;;10.43;2.53;;;19.30;99.90;;;;;;5008312;28;20479;-52
2023/06/29 08:14:38;;;;;;;4.60;2.50;;;19.40;97.40;;;;;;5006892;28;20460;-51
2023/06/29 08:17:06;;;;;;;7.90;2.67;;;19.40;98.70;;;;;;5002960;28;20563;-52
2023/06/29 08:19:33;;;;;;;5.87;2.67;;;19.50;99.90;;;;;;5008805;28;21020;-51
2023/06/29 08:21:59;;;;;;;3.37;2.30;;;19.50;99.90;;;;;;5007180;28;20566;-51
2023/06/29 08:24:26;;;;;;;4.63;2.70;;;19.60;99.90;;;;;;5010128;28;22273;-51
2023/06/29 08:26:52;;;;;;;6.30;2.67;;;19.60;99.90;;;;;;5010510;28;20606;-51
2023/06/29 08:29:20;;;;;;;10.97;2.63;;;19.60;99.90;;;;;;5009849;28;20559;-52
2023/06/29 08:31:47;;;;;;;7.23;2.60;;;19.70;99.90;;;;;;5008383;28;21021;-51
2023/06/29 08:34:14;;;;;;;5.07;2.70;;;19.70;99.90;;;;;;5007548;28;20543;-51
2023/06/29 08:36:41;;;;;;;3.37;2.40;;;19.80;99.90;;;;;;5010551;28;20520;-51
2023/06/29 08:39:08;;;;;;;6.37;2.67;;;19.80;99.90;;;;;;5006313;28;20464;-52
2023/06/29 08:41:35;;;;;;;5.30;3.33;;;19.90;99.90;;;;;;5006935;28;20486;-50
2023/06/29 08:44:04;;;;;;;4.70;2.90;;;19.90;99.90;;;;;;5011837;28;20522;-50
2023/06/29 08:46:31;;;;;;;4.80;3.00;;;20.00;99.90;;;;;;5006537;28;20557;-50
2023/06/29 08:48:58;;;;;;;5.57;2.90;;;20.00;99.90;;;;;;5010698;28;20535;-52
2023/06/29 08:51:28;;;;;;;3.83;2.50;;;20.00;99.90;;;;;;5010503;28;20555;-51
2023/06/29 08:53:55;;;;;;;6.83;3.57;;;20.10;99.90;;;;;;5010960;28;20535;-51
2023/06/29 08:56:23;;;;;;;4.00;2.60;;;20.10;99.90;;;;;;5002362;28;20495;-52
2023/06/29 08:58:51;;;;;;;7.87;3.00;;;20.10;99.90;;;;;;5007560;28;20460;-52
2023/06/29 09:01:17;;;;;;;4.07;3.00;;;20.20;99.90;;;;;;5010455;28;20560;-52
2023/06/29 09:03:44;;;;;;;4.00;2.53;;;20.30;99.90;;;;;;5011569;28;20530;-52
2023/06/29 09:06:11;;;;;;;5.37;2.83;;;20.30;99.90;;;;;;5009867;28;20916;-51
2023/06/29 09:08:40;;;;;;;6.87;2.77;;;20.40;99.90;;;;;;5011465;28;20829;-51
2023/06/29 09:11:06;;;;;;;4.17;2.43;;;20.50;99.90;;;;;;5007246;28;20547;-53
2023/06/29 09:13:34;;;;;;;9.07;2.80;;;20.60;99.90;;;;;;5006263;28;20510;-51
2023/06/29 09:16:01;;;;;;;4.97;3.17;;;20.60;99.90;;;;;;5006686;28;20929;-51
2023/06/29 09:18:28;;;;;;;4.40;2.40;;;20.60;99.90;;;;;;5010264;28;20464;-53
2023/06/29 09:20:55;;;;;;;9.07;2.93;;;20.60;99.90;;;;;;5009019;28;20502;-52
2023/06/29 09:23:22;;;;;;;2.50;2.23;;;20.60;99.90;;;;;;5010471;28;20460;-54
2023/06/29 09:25:50;;;;;;;8.80;2.57;;;20.60;99.90;;;;;;5007179;28;20562;-53
2023/06/29 09:28:18;;;;;;;5.47;3.20;;;20.60;99.90;;;;;;5005460;28;20476;-53
2023/06/29 09:30:44;;;;;;;8.00;2.70;;;20.60;99.90;;;;;;5007131;28;20467;-53
2023/06/29 09:33:12;;;;;;;5.27;2.10;;;20.60;99.90;;;;;;5011591;28;21265;-53
2023/06/29 09:35:41;;;;;;;5.80;2.53;;;20.70;99.90;;;;;;5009510;28;20468;-53
2023/06/29 09:38:07;;;;;;;6.73;2.70;;;20.70;99.90;;;;;;5010056;28;20514;-52
2023/06/29 09:40:46;;;;;;;4.10;2.57;;;20.80;99.90;;;;;;5009792;28;20886;-54
2023/06/29 09:43:17;;;;;;;10.33;2.60;;;20.90;99.90;;;;;;5010777;28;20540;-53
2023/06/29 09:45:44;;;;;;;5.30;2.10;;;20.90;99.90;;;;;;5007295;28;20499;-53
2023/06/29 09:48:12;;;;;;;4.20;2.60;;;20.90;21.80;;;;;;5005272;28;20456;-53
2023/06/29 09:50:38;;;;;;;4.10;1.90;;;20.90;36.40;;;;;;5006946;28;20468;-53
2023/06/29 09:53:08;;;;;;;5.67;2.60;;;21.10;99.90;;;;;;5009965;28;20510;-52
2023/06/29 09:55:37;;;;;;;4.87;2.63;;;21.10;20.00;;;;;;5005844;28;20459;-53
2023/06/29 09:58:04;;;;;;;4.53;2.17;;;21.20;31.10;;;;;;5009203;28;20463;-50
2023/06/29 10:00:33;;;;;;;6.37;2.90;;;21.30;36.90;;;;;;5009775;28;20571;-51
2023/06/29 10:02:59;;;;;;;4.53;2.47;;;21.40;37.60;;;;;;4992661;28;20935;-55
2023/06/29 10:05:29;;;;;;;3.87;2.30;;;21.60;33.40;;;;;;5006620;28;20484;-55
2023/06/29 10:07:57;;;;;;;6.77;2.10;;;21.70;56.90;;;;;;5008920;28;20510;-54
2023/06/29 10:10:25;;;;;;;3.53;2.50;;;21.70;62.30;;;;;;5009236;28;20976;-56
2023/06/29 10:12:54;;;;;;;2.70;2.40;;;21.90;62.00;;;;;;5010642;28;20467;-55
2023/06/29 10:15:22;;;;;;;3.13;2.30;;;22.30;59.60;;;;;;5008976;28;20518;-55
2023/06/29 10:17:59;;;;;;;6.63;2.37;;;22.50;94.20;;;;;;5003370;28;20896;-55
2023/06/29 10:20:29;;;;;;;5.07;3.27;;;22.70;99.90;;;;;;5011055;28;20542;-54
2023/06/29 10:22:59;;;;;;;6.13;2.63;;;22.60;99.90;;;;;;5012817;28;20550;-55
2023/06/29 10:25:27;;;;;;;3.43;1.97;;;22.70;99.90;;;;;;5012731;28;20498;-55
2023/06/29 10:27:56;;;;;;;4.43;2.57;;;22.80;99.90;;;;;;5014590;28;20545;-55
2023/06/29 10:30:22;;;;;;;5.40;2.50;;;22.70;99.90;;;;;;5006550;28;20465;-54
2023/06/29 10:32:51;;;;;;;7.07;2.90;;;22.80;99.90;;;;;;5013348;28;20464;-54
2023/06/29 10:35:18;;;;;;;4.00;2.43;;;22.80;99.90;;;;;;5012652;28;20471;-55
2023/06/29 10:37:46;;;;;;;4.70;2.60;;;22.60;99.90;;;;;;5014062;28;20543;-56
2023/06/29 10:40:15;;;;;;;13.53;2.70;;;22.70;99.90;;;;;;5010925;28;20550;-56
2023/06/29 10:42:52;;;;;;;5.97;3.27;;;22.60;99.90;;;;;;5014090;28;20482;-56
2023/06/29 10:45:33;;;;;;;5.37;2.50;;;22.60;99.90;;;;;;5011699;28;20483;-55
2023/06/29 10:48:03;;;;;;;8.03;2.40;;;22.80;99.90;;;;;;5005742;28;20449;-56
2023/06/29 10:50:31;;;;;;;2.70;2.50;;;22.90;99.90;;;;;;5004292;28;20500;-54
2023/06/29 10:52:59;;;;;;;5.80;2.20;;;22.90;99.90;;;;;;5009151;28;20468;-54
2023/06/29 10:55:28;;;;;;;2.40;2.20;;;23.00;99.90;;;;;;5008962;28;20559;-53
2023/06/29 10:57:56;;;;;;;3.00;2.40;;;23.00;99.90;;;;;;5007481;28;20483;-54
2023/06/29 11:00:25;;;;;;;6.00;2.80;;;23.00;99.90;;;;;;5006008;28;21037;-54
2023/06/29 11:02:52;;;;;;;3.67;2.30;;;22.80;99.90;;;;;;5011662;28;20538;-54
2023/06/29 11:05:21;;;;;;;4.67;2.43;;;22.60;99.90;;;;;;5011060;28;20494;-54
2023/06/29 11:07:51;;;;;;;3.00;2.20;;;22.50;99.90;;;;;;5014040;28;20495;-54
2023/06/29 11:10:19;;;;;;;6.47;2.97;;;22.40;99.90;;;;;;5011481;28;20563;-55
2023/06/29 11:12:45;;;;;;;4.57;2.27;;;22.30;98.00;;;;;;5013319;28;20471;-55
2023/06/29 11:15:13;;;;;;;2.37;1.80;;;22.30;99.90;;;;;;5006643;28;20495;-54
2023/06/29 11:17:40;;;;;;;4.30;2.80;;;22.20;99.90;;;;;;5011644;28;20576;-54
2023/06/29 11:20:11;;;;;;;3.37;2.13;;;22.30;99.90;;;;;;5011581;28;20543;-55
2023/06/29 11:22:39;;;;;;;4.70;2.63;;;22.30;99.90;;;;;;5008832;28;20554;-55
2023/06/29 11:25:07;;;;;;;6.83;2.67;;;22.30;99.90;;;;;;5011562;28;20517;-55
2023/06/29 11:27:33;;;;;;;4.10;2.67;;;22.40;99.90;;;;;;5013056;28;20486;-54
2023/06/29 11:30:00;;;;;;;2.73;2.30;;;22.40;99.90;;;;;;5010664;28;21025;-55
2023/06/29 11:32:30;;;;;;;3.57;2.53;;;22.30;99.90;;;;;;5009097;28;21032;-55
2023/06/29 11:34:57;;;;;;;4.67;2.53;;;22.30;99.90;;;;;;5011840;28;20510;-55
2023/06/29 11:37:24;;;;;;;7.70;2.47;;;22.30;99.90;;;;;;5013391;28;20480;-55
2023/06/29 11:39:52;;;;;;;9.43;2.63;;;22.30;99.90;;;;;;5012058;28;20499;-51
2023/06/29 11:42:21;;;;;;;11.17;2.70;;;22.30;99.90;;;;;;5012673;28;20538;-53
2023/06/29 11:44:48;;;;;;;4.27;2.50;;;22.20;99.90;;;;;;5010382;28;20504;-56
2023/06/29 11:47:16;;;;;;;2.77;2.50;;;22.20;90.00;;;;;;5009655;28;20523;-56
2023/06/29 11:49:42;;;;;;;8.23;2.57;;;22.20;92.00;;;;;;5010563;28;20456;-55
2023/06/29 11:52:10;;;;;;;2.63;2.43;;;22.20;98.30;;;;;;5011106;28;20459;-54
2023/06/29 11:54:38;;;;;;;9.13;2.83;;;22.20;99.90;;;;;;5011916;28;20535;-54
2023/06/29 11:57:06;;;;;;;6.00;3.03;;;22.10;99.90;;;;;;5011005;28;20495;-54
2023/06/29 11:59:38;;;;;;;6.17;3.33;;;22.10;94.30;;;;;;5005351;28;20564;-56
2023/06/29 12:02:05;;;;;;;4.30;2.73;;;22.10;99.90;;;;;;5001922;28;20480;-55
2023/06/29 12:04:31;;;;;;;3.60;2.30;;;22.10;99.90;;;;;;5011718;28;20552;-55
2023/06/29 12:06:58;;;;;;;11.43;2.60;;;22.20;99.90;;;;;;5010915;28;20564;-54
2023/06/29 12:09:29;;;;;;;2.30;1.93;;;22.20;99.90;;;;;;5009193;28;20620;-55
2023/06/29 12:11:57;;;;;;;3.80;2.53;;;22.20;99.90;;;;;;5011959;28;20452;-56
2023/06/29 12:14:27;;;;;;;9.53;2.83;;;22.20;99.90;;;;;;5009967;28;20467;-55
2023/06/29 12:16:54;;;;;;;5.27;2.50;;;22.20;99.90;;;;;;5010633;28;20511;-55
2023/06/29 12:19:21;;;;;;;9.17;2.60;;;22.20;99.90;;;;;;5007756;28;20949;-55
2023/06/29 12:21:47;;;;;;;6.37;2.80;;;22.30;97.60;;;;;;5009093;28;20966;-54
2023/06/29 12:24:17;;;;;;;4.80;2.80;;;22.40;90.20;;;;;;5008697;28;20552;-54
2023/06/29 12:26:43;;;;;;;4.83;2.27;;;22.50;99.90;;;;;;5010779;28;20491;-51
2023/06/29 12:29:10;;;;;;;3.37;2.60;;;22.60;99.90;;;;;;4999870;28;20503;-51
2023/06/29 12:31:38;;;;;;;2.57;1.87;;;22.70;99.90;;;;;;5004568;28;20525;-52
2023/06/29 12:34:05;;;;;;;9.53;2.60;;;22.70;99.90;;;;;;5011895;28;20443;-52
2023/06/29 12:36:31;;;;;;;5.53;2.57;;;22.80;99.90;;;;;;5010573;28;20476;-51
2023/06/29 12:38:58;;;;;;;3.30;2.60;;;22.80;99.90;;;;;;5008479;28;20463;-51
2023/06/29 12:41:24;;;;;;;5.60;2.33;;;22.90;99.90;;;;;;5001661;28;20912;-52
2023/06/29 12:43:51;;;;;;;3.23;2.10;;;22.90;99.90;;;;;;5010501;28;20460;-51
2023/06/29 12:46:18;;;;;;;7.97;3.20;;;22.90;99.90;;;;;;5010830;28;20574;-52